Time;durP1;ratioP1;P1;durP2;ratioP2;P2;SDS_P1;SDS_P2;PMS_P1;PMS_P2;Temp;Humidity;BMP_temperature;BMP_pressure;BME280_temperature;BME280_humidity;BME280_pressure;Samples;Min_cycle;Max_cycle;Signal;HPM_P1;HPM_P2
2024/03/12 00:00:16;;;;;;;7.13;4.13;;;10.70;99.90;;;;;;5007986;28;20278;-67
2024/03/12 00:02:46;;;;;;;4.80;4.23;;;10.60;99.90;;;;;;5011082;28;20899;-67
2024/03/12 00:05:18;;;;;;;4.10;3.70;;;10.60;99.90;;;;;;5013491;28;20440;-67
2024/03/12 00:07:48;;;;;;;5.13;3.93;;;10.60;99.90;;;;;;5015867;28;21306;-67
2024/03/12 00:10:16;;;;;;;6.00;4.10;;;10.60;99.90;;;;;;5015336;28;21068;-67
2024/03/12 00:12:50;;;;;;;5.27;4.00;;;10.60;99.90;;;;;;5014105;28;20415;-67
2024/03/12 00:15:17;;;;;;;4.63;4.10;;;10.60;99.90;;;;;;5013735;28;20505;-67
2024/03/12 00:17:44;;;;;;;5.40;4.30;;;10.60;99.90;;;;;;5012579;28;20544;-67
2024/03/12 00:20:24;;;;;;;4.60;3.50;;;10.60;99.90;;;;;;5015412;28;20420;-67
2024/03/12 00:22:50;;;;;;;5.20;3.87;;;10.50;99.90;;;;;;5009095;28;21042;-67
2024/03/12 00:25:20;;;;;;;4.23;3.47;;;10.60;99.90;;;;;;5016686;28;20450;-67
2024/03/12 00:27:47;;;;;;;4.43;3.30;;;10.50;99.90;;;;;;5016287;28;20419;-67
2024/03/12 00:30:14;;;;;;;5.43;4.00;;;10.50;99.90;;;;;;5010881;28;20474;-67
2024/03/12 00:32:43;;;;;;;5.37;3.60;;;10.50;99.90;;;;;;5016363;28;20470;-67
2024/03/12 00:35:12;;;;;;;5.00;3.77;;;10.40;99.90;;;;;;5007445;28;20451;-67
2024/03/12 00:37:38;;;;;;;3.70;3.30;;;10.50;99.90;;;;;;5012345;28;20453;-67
2024/03/12 00:40:05;;;;;;;5.60;4.20;;;10.40;99.90;;;;;;5008852;28;20466;-67
2024/03/12 00:42:32;;;;;;;7.23;3.50;;;10.40;99.90;;;;;;5012776;28;20883;-67
2024/03/12 00:44:58;;;;;;;4.27;3.63;;;10.40;99.90;;;;;;5008430;28;20973;-68
2024/03/12 00:47:25;;;;;;;5.93;3.70;;;10.40;99.90;;;;;;5016910;28;20426;-67
2024/03/12 00:49:50;;;;;;;5.37;3.80;;;10.40;99.90;;;;;;5011950;28;20449;-68
2024/03/12 00:52:17;;;;;;;6.03;3.80;;;10.40;99.90;;;;;;5009090;28;20439;-68
2024/03/12 00:54:45;;;;;;;4.80;3.40;;;10.50;99.90;;;;;;5011116;28;20197;-67
2024/03/12 00:57:11;;;;;;;6.13;3.67;;;10.40;99.90;;;;;;5008836;28;20416;-67
2024/03/12 00:59:37;;;;;;;5.43;3.77;;;10.30;99.90;;;;;;5013349;28;20419;-67
2024/03/12 01:02:04;;;;;;;4.07;3.63;;;10.30;99.90;;;;;;5011672;28;20829;-67
2024/03/12 01:04:29;;;;;;;5.53;3.47;;;10.40;99.90;;;;;;5009829;28;20200;-67
2024/03/12 01:06:55;;;;;;;4.53;3.67;;;10.40;99.90;;;;;;5011721;28;20416;-67
2024/03/12 01:09:21;;;;;;;4.47;3.37;;;10.40;99.90;;;;;;5009615;28;20180;-67
2024/03/12 01:11:47;;;;;;;6.50;3.67;;;10.30;99.90;;;;;;5014892;28;20971;-67
2024/03/12 01:14:17;;;;;;;3.80;3.40;;;10.30;99.90;;;;;;5009993;28;20197;-68
2024/03/12 01:16:44;;;;;;;4.80;3.63;;;10.30;99.90;;;;;;5009744;28;20514;-67
2024/03/12 01:19:11;;;;;;;4.50;3.90;;;10.20;99.90;;;;;;5011607;28;20432;-67
2024/03/12 01:21:39;;;;;;;4.33;3.23;;;10.20;99.90;;;;;;5010529;28;20448;-67
2024/03/12 01:24:05;;;;;;;4.40;3.60;;;10.20;99.90;;;;;;5013080;28;20462;-67
2024/03/12 01:26:31;;;;;;;4.00;3.50;;;10.30;99.90;;;;;;5010468;28;20423;-67
2024/03/12 01:28:57;;;;;;;4.30;3.60;;;10.20;99.90;;;;;;5011520;28;20454;-68
2024/03/12 01:31:22;;;;;;;4.50;4.00;;;10.20;99.90;;;;;;5000624;28;20288;-68
2024/03/12 01:33:49;;;;;;;3.70;3.40;;;10.10;99.90;;;;;;5008894;28;20231;-68
2024/03/12 01:36:20;;;;;;;4.77;3.73;;;10.00;99.90;;;;;;5011887;28;20806;-67
2024/03/12 01:38:48;;;;;;;4.07;3.30;;;10.00;99.90;;;;;;5015795;28;20411;-67
2024/03/12 01:41:17;;;;;;;4.53;3.80;;;10.10;99.90;;;;;;5011983;28;20420;-67
2024/03/12 01:43:43;;;;;;;5.80;4.10;;;10.00;99.90;;;;;;5011787;28;20505;-67
2024/03/12 01:46:10;;;;;;;5.43;3.10;;;10.00;99.90;;;;;;5011526;28;20601;-67
2024/03/12 01:48:36;;;;;;;4.40;3.50;;;9.90;99.90;;;;;;5025114;28;20192;-67
2024/03/12 01:51:05;;;;;;;7.30;3.60;;;9.90;99.90;;;;;;5009815;28;20522;-68
2024/03/12 01:53:33;;;;;;;5.00;3.50;;;9.90;99.90;;;;;;5012113;28;20420;-68
2024/03/12 01:56:00;;;;;;;4.13;3.73;;;9.80;99.90;;;;;;5015261;28;20423;-67
2024/03/12 01:58:26;;;;;;;5.20;4.70;;;9.90;99.90;;;;;;5008574;28;20428;-67
2024/03/12 02:00:51;;;;;;;4.10;3.33;;;9.80;99.90;;;;;;5011908;28;20435;-67
2024/03/12 02:03:18;;;;;;;4.17;3.50;;;9.70;99.90;;;;;;5015914;28;20910;-67
2024/03/12 02:05:46;;;;;;;4.90;3.67;;;9.80;99.90;;;;;;5014380;28;20201;-67
2024/03/12 02:08:13;;;;;;;6.40;3.93;;;9.80;99.90;;;;;;5012080;28;20504;-67
2024/03/12 02:10:38;;;;;;;4.30;3.87;;;9.80;99.90;;;;;;5013487;28;20459;-67
2024/03/12 02:13:04;;;;;;;6.43;3.70;;;9.80;99.90;;;;;;5019755;28;20909;-67
2024/03/12 02:15:30;;;;;;;5.67;4.20;;;9.80;99.90;;;;;;5014217;28;20825;-67
2024/03/12 02:17:56;;;;;;;3.83;3.20;;;9.80;99.90;;;;;;5014325;28;20441;-67
2024/03/12 02:20:22;;;;;;;5.97;4.20;;;9.80;99.90;;;;;;5016734;28;20205;-67
2024/03/12 02:22:47;;;;;;;5.73;3.80;;;9.80;99.90;;;;;;5014116;28;21651;-67
2024/03/12 02:25:13;;;;;;;4.00;3.37;;;9.90;99.90;;;;;;5011836;28;20200;-67
2024/03/12 02:27:42;;;;;;;5.53;3.90;;;9.90;99.90;;;;;;5018078;28;20738;-67
2024/03/12 02:30:09;;;;;;;7.53;4.23;;;9.90;99.90;;;;;;5012108;28;20343;-67
2024/03/12 02:32:36;;;;;;;4.53;3.53;;;9.90;99.90;;;;;;5015451;28;20413;-67
2024/03/12 02:35:01;;;;;;;4.33;3.70;;;10.00;99.90;;;;;;5016459;28;20449;-67
2024/03/12 02:37:27;;;;;;;5.30;4.80;;;10.00;99.90;;;;;;5013930;28;20419;-67
2024/03/12 02:39:52;;;;;;;7.67;4.30;;;10.00;99.90;;;;;;5017918;28;20192;-67
2024/03/12 02:42:18;;;;;;;4.50;4.00;;;10.00;99.90;;;;;;5010165;28;20195;-68
2024/03/12 02:44:44;;;;;;;5.20;4.00;;;9.90;99.90;;;;;;5018803;28;20192;-67
2024/03/12 02:47:09;;;;;;;4.77;3.50;;;10.00;99.90;;;;;;5017782;28;20234;-68
2024/03/12 02:49:36;;;;;;;8.90;4.40;;;10.00;99.90;;;;;;5019403;28;20184;-67
2024/03/12 02:52:03;;;;;;;4.10;3.50;;;10.00;99.90;;;;;;5016500;28;20206;-67
2024/03/12 02:54:28;;;;;;;7.27;4.63;;;10.00;99.90;;;;;;5019524;28;20442;-67
2024/03/12 02:56:54;;;;;;;5.70;3.57;;;10.00;99.90;;;;;;5018914;28;20777;-67
2024/03/12 02:59:21;;;;;;;4.93;3.60;;;10.00;99.90;;;;;;5015941;28;20186;-67
2024/03/12 03:01:46;;;;;;;7.60;4.23;;;9.90;99.90;;;;;;5017248;28;20192;-67
2024/03/12 03:04:12;;;;;;;8.90;4.40;;;10.00;99.90;;;;;;5012586;28;20512;-67
2024/03/12 03:06:38;;;;;;;6.20;3.93;;;10.10;99.90;;;;;;5014314;28;20268;-67
2024/03/12 03:09:09;;;;;;;7.90;4.50;;;10.20;99.90;;;;;;5015019;28;20192;-67
2024/03/12 03:11:35;;;;;;;6.87;3.67;;;10.20;99.90;;;;;;5015750;28;20204;-67
2024/03/12 03:14:01;;;;;;;6.00;3.73;;;10.20;99.90;;;;;;5014050;28;20469;-67
2024/03/12 03:16:31;;;;;;;8.83;4.03;;;10.30;99.90;;;;;;5011618;28;20840;-67
2024/03/12 03:18:57;;;;;;;3.80;3.17;;;10.20;99.90;;;;;;5025582;28;20218;-67
2024/03/12 03:21:26;;;;;;;4.20;3.67;;;10.20;99.90;;;;;;4993977;28;20462;-67
2024/03/12 03:23:52;;;;;;;5.80;4.57;;;10.20;99.90;;;;;;5014766;28;20844;-67
2024/03/12 03:26:18;;;;;;;7.27;4.70;;;10.20;99.90;;;;;;5014894;28;20427;-67
2024/03/12 03:28:44;;;;;;;4.90;3.80;;;10.30;99.90;;;;;;5011088;28;20192;-67
2024/03/12 03:31:12;;;;;;;7.73;4.37;;;10.30;99.90;;;;;;5011849;28;20488;-67
2024/03/12 03:33:38;;;;;;;6.73;4.50;;;10.30;99.90;;;;;;5012543;28;20492;-67
2024/03/12 03:36:04;;;;;;;4.90;4.20;;;10.30;99.90;;;;;;5016606;28;21109;-68
2024/03/12 03:38:29;;;;;;;5.23;3.90;;;10.30;99.90;;;;;;5009301;28;20511;-67
2024/03/12 03:40:55;;;;;;;7.57;3.90;;;10.40;99.90;;;;;;5012626;28;20195;-67
2024/03/12 03:43:20;;;;;;;4.80;4.10;;;10.50;99.90;;;;;;5007991;28;20189;-68
2024/03/12 03:45:46;;;;;;;5.20;3.97;;;10.50;99.90;;;;;;5013772;28;20295;-67
2024/03/12 03:48:12;;;;;;;9.50;4.30;;;10.40;99.90;;;;;;5016005;28;20188;-67
2024/03/12 03:50:38;;;;;;;5.57;4.13;;;10.50;99.90;;;;;;5015282;28;20466;-68
2024/03/12 03:53:03;;;;;;;7.10;5.23;;;10.30;99.90;;;;;;5020438;28;20271;-67
2024/03/12 03:55:29;;;;;;;4.70;4.00;;;10.30;99.90;;;;;;5010855;28;20795;-67
2024/03/12 03:57:54;;;;;;;6.47;4.13;;;10.20;99.90;;;;;;5012325;28;20180;-67
2024/03/12 04:00:23;;;;;;;5.80;3.93;;;10.30;99.90;;;;;;5011572;28;20191;-67
2024/03/12 04:02:49;;;;;;;4.73;3.90;;;10.30;99.90;;;;;;5017242;28;20654;-67
2024/03/12 04:05:16;;;;;;;7.90;4.50;;;10.30;99.90;;;;;;5012823;28;20865;-67
2024/03/12 04:07:43;;;;;;;5.37;4.87;;;10.20;99.90;;;;;;5009038;28;21004;-67
2024/03/12 04:10:13;;;;;;;5.17;3.93;;;10.30;99.90;;;;;;5024675;28;20601;-67
2024/03/12 04:12:44;;;;;;;6.33;4.90;;;10.20;99.90;;;;;;5016926;28;20416;-67
2024/03/12 04:15:10;;;;;;;5.27;4.60;;;10.10;99.90;;;;;;5013795;28;20446;-68
2024/03/12 04:17:37;;;;;;;5.57;4.70;;;10.10;99.90;;;;;;5011632;28;20431;-68
2024/03/12 04:20:09;;;;;;;6.47;4.43;;;10.20;99.90;;;;;;5010726;28;20531;-68
2024/03/12 04:22:35;;;;;;;9.63;5.13;;;10.10;99.90;;;;;;5011222;28;20436;-68
2024/03/12 04:25:02;;;;;;;7.50;4.77;;;10.10;99.90;;;;;;5008580;28;20492;-67
2024/03/12 04:27:27;;;;;;;6.53;4.77;;;10.00;99.90;;;;;;5007549;28;20527;-68
2024/03/12 04:29:53;;;;;;;5.97;4.57;;;10.00;99.90;;;;;;5007276;28;20503;-67
2024/03/12 04:32:20;;;;;;;5.70;4.23;;;9.90;99.90;;;;;;5018330;28;20278;-67
2024/03/12 04:34:46;;;;;;;7.10;5.40;;;9.80;99.90;;;;;;5016106;28;20197;-68
2024/03/12 04:37:12;;;;;;;5.07;4.37;;;9.90;99.90;;;;;;5015909;28;20754;-68
2024/03/12 04:39:38;;;;;;;8.27;4.70;;;10.00;99.90;;;;;;5013085;28;20466;-68
2024/03/12 04:42:05;;;;;;;5.97;4.47;;;9.90;99.90;;;;;;5017935;28;20447;-68
2024/03/12 04:44:33;;;;;;;6.73;4.30;;;9.80;99.90;;;;;;5010915;28;20531;-67
2024/03/12 04:46:59;;;;;;;5.27;4.40;;;9.90;99.90;;;;;;5011321;28;20420;-68
2024/03/12 04:49:25;;;;;;;7.20;4.50;;;9.90;99.90;;;;;;5012672;28;20453;-68
2024/03/12 04:51:51;;;;;;;5.57;4.37;;;9.90;99.90;;;;;;5008561;28;20228;-68
2024/03/12 04:54:18;;;;;;;7.67;5.00;;;10.00;99.90;;;;;;5010784;28;20567;-68
2024/03/12 04:56:45;;;;;;;5.67;4.60;;;10.00;99.90;;;;;;5014203;28;20439;-68
2024/03/12 04:59:13;;;;;;;6.67;5.13;;;10.00;99.90;;;;;;5010565;28;20440;-68
2024/03/12 05:01:38;;;;;;;8.73;4.90;;;9.90;99.90;;;;;;5009254;28;20691;-68
2024/03/12 05:04:04;;;;;;;5.70;4.80;;;9.90;99.90;;;;;;5009692;28;20888;-68
2024/03/12 05:06:31;;;;;;;7.23;4.63;;;9.80;99.90;;;;;;5018162;28;20191;-68
2024/03/12 05:08:56;;;;;;;11.93;4.80;;;9.80;99.90;;;;;;5009242;28;20197;-68
2024/03/12 05:11:22;;;;;;;6.80;4.60;;;9.70;99.90;;;;;;5011067;28;21065;-68
2024/03/12 05:13:47;;;;;;;5.80;4.30;;;9.80;99.90;;;;;;5012412;28;20726;-68
2024/03/12 05:16:13;;;;;;;6.13;4.80;;;9.80;99.90;;;;;;5011040;28;20283;-68
2024/03/12 05:18:38;;;;;;;5.50;4.33;;;9.70;99.90;;;;;;5006223;28;20185;-67
2024/03/12 05:21:04;;;;;;;5.20;4.70;;;9.60;99.90;;;;;;5014813;28;20191;-68
2024/03/12 05:23:30;;;;;;;5.97;4.77;;;9.50;99.90;;;;;;5011165;28;20648;-67
2024/03/12 05:25:56;;;;;;;5.70;4.70;;;9.50;99.90;;;;;;5018117;28;20691;-67
2024/03/12 05:28:23;;;;;;;7.03;5.90;;;9.50;99.90;;;;;;5007635;28;20271;-68
2024/03/12 05:30:49;;;;;;;4.90;4.40;;;9.50;99.90;;;;;;5012167;28;20471;-68
2024/03/12 05:33:15;;;;;;;6.00;5.23;;;9.40;99.90;;;;;;5010843;28;20439;-68
2024/03/12 05:35:47;;;;;;;6.67;4.70;;;9.50;99.90;;;;;;5010148;28;20513;-67
2024/03/12 05:41:14;;;;;;;7.37;4.73;;;9.50;99.90;;;;;;5015736;28;20477;-68
2024/03/12 05:49:14;;;;;;;6.80;5.27;;;9.50;99.90;;;;;;5013212;28;20525;-68
2024/03/12 05:51:39;;;;;;;6.30;5.00;;;9.40;99.90;;;;;;5008406;28;20471;-68
2024/03/12 05:54:05;;;;;;;7.03;4.73;;;9.40;99.90;;;;;;5009949;28;20462;-68
2024/03/12 05:56:31;;;;;;;5.97;4.53;;;9.50;99.90;;;;;;5013027;28;20223;-67
2024/03/12 05:58:58;;;;;;;7.20;5.07;;;9.50;99.90;;;;;;5013888;28;20193;-67
2024/03/12 06:01:24;;;;;;;7.13;5.47;;;9.50;99.90;;;;;;5009342;28;20426;-68
2024/03/12 06:03:50;;;;;;;5.33;4.60;;;9.50;99.90;;;;;;5009186;28;20438;-67
2024/03/12 06:06:17;;;;;;;6.43;4.83;;;9.50;99.90;;;;;;5015376;28;21129;-67
2024/03/12 06:08:44;;;;;;;5.73;4.63;;;9.50;99.90;;;;;;5009705;28;20508;-67
2024/03/12 06:11:11;;;;;;;7.20;4.13;;;9.50;99.90;;;;;;5013160;28;20470;-68
2024/03/12 06:13:38;;;;;;;5.73;4.43;;;9.60;99.90;;;;;;5012238;28;21133;-67
2024/03/12 06:16:05;;;;;;;6.17;4.43;;;9.60;99.90;;;;;;5012880;28;20447;-68
2024/03/12 06:18:30;;;;;;;7.60;3.87;;;9.60;99.90;;;;;;5012770;28;20478;-68
2024/03/12 06:20:56;;;;;;;6.10;4.07;;;9.60;99.90;;;;;;5014149;28;20427;-68
2024/03/12 06:23:23;;;;;;;5.20;4.70;;;9.50;99.90;;;;;;5008175;28;20192;-68
2024/03/12 06:25:49;;;;;;;5.73;4.13;;;9.60;99.90;;;;;;5013369;28;20449;-68
2024/03/12 06:28:14;;;;;;;5.07;4.03;;;9.60;99.90;;;;;;5011395;28;20470;-68
2024/03/12 06:30:43;;;;;;;5.70;4.57;;;9.60;99.90;;;;;;5012589;28;20569;-68
2024/03/12 06:33:09;;;;;;;7.63;3.83;;;9.60;99.90;;;;;;5010743;28;20254;-68
2024/03/12 06:35:35;;;;;;;6.33;4.33;;;9.50;99.90;;;;;;5016945;28;20443;-69
2024/03/12 06:38:04;;;;;;;4.93;4.37;;;9.60;99.90;;;;;;5014714;28;20426;-69
2024/03/12 06:40:30;;;;;;;5.47;3.60;;;9.60;99.90;;;;;;5018743;28;20419;-68
2024/03/12 06:42:59;;;;;;;6.60;4.20;;;9.60;99.90;;;;;;5013936;28;20435;-67
2024/03/12 06:45:28;;;;;;;6.50;4.23;;;9.60;99.90;;;;;;5016695;28;20971;-67
2024/03/12 06:48:00;;;;;;;5.90;3.33;;;9.60;99.90;;;;;;5011078;28;20476;-67
2024/03/12 06:50:25;;;;;;;6.00;4.43;;;9.50;99.90;;;;;;5019582;28;20551;-67
2024/03/12 06:52:55;;;;;;;5.93;3.73;;;9.50;99.90;;;;;;5020304;28;20427;-68
2024/03/12 06:55:24;;;;;;;4.33;3.53;;;9.50;99.90;;;;;;5017732;28;20205;-67
2024/03/12 06:57:59;;;;;;;5.93;4.30;;;9.60;99.90;;;;;;5019466;28;20435;-67
2024/03/12 07:00:37;;;;;;;8.53;4.33;;;9.60;99.90;;;;;;5019814;28;20427;-67
2024/03/12 07:03:06;;;;;;;5.20;3.37;;;9.70;99.90;;;;;;5017854;28;20422;-68
2024/03/12 07:05:43;;;;;;;5.33;4.43;;;9.70;99.90;;;;;;5018873;28;20447;-68
2024/03/12 07:08:10;;;;;;;4.40;3.50;;;9.70;99.90;;;;;;5014958;28;20546;-68
2024/03/12 07:10:40;;;;;;;4.93;4.33;;;9.70;99.90;;;;;;5010341;28;20506;-68
2024/03/12 07:13:07;;;;;;;4.57;3.70;;;9.80;99.90;;;;;;5019257;28;20429;-68
2024/03/12 07:15:35;;;;;;;4.27;3.50;;;9.90;99.90;;;;;;5012915;28;21256;-68
2024/03/12 07:18:00;;;;;;;4.80;3.63;;;9.90;99.90;;;;;;5015290;28;20436;-68
2024/03/12 07:20:29;;;;;;;5.30;3.20;;;9.80;99.90;;;;;;5018735;28;20450;-68
2024/03/12 07:22:58;;;;;;;6.80;3.90;;;9.80;99.90;;;;;;5016062;28;20185;-68
2024/03/12 07:25:25;;;;;;;4.87;3.60;;;9.80;99.90;;;;;;5020019;28;21038;-68
2024/03/12 07:27:53;;;;;;;5.10;4.03;;;9.70;99.90;;;;;;5013897;28;20475;-68
2024/03/12 07:30:18;;;;;;;5.30;4.17;;;9.80;99.90;;;;;;5012572;28;20471;-68
2024/03/12 07:32:46;;;;;;;6.60;3.57;;;9.70;99.90;;;;;;5010242;28;20802;-68
2024/03/12 07:35:13;;;;;;;4.47;3.77;;;9.80;99.90;;;;;;5013546;28;20549;-68
2024/03/12 07:37:40;;;;;;;6.23;3.50;;;9.90;99.90;;;;;;5017422;28;20799;-68
2024/03/12 07:40:11;;;;;;;5.80;3.67;;;9.90;99.90;;;;;;5017523;28;20921;-67
2024/03/12 07:42:38;;;;;;;4.73;3.60;;;9.90;99.90;;;;;;5010762;28;20462;-68
2024/03/12 07:45:05;;;;;;;5.03;4.10;;;9.90;99.90;;;;;;5021033;28;20439;-68
2024/03/12 07:47:31;;;;;;;4.67;3.53;;;9.90;99.90;;;;;;5013886;28;20424;-67
2024/03/12 07:49:57;;;;;;;4.50;3.40;;;9.80;99.90;;;;;;5019706;28;20823;-67
2024/03/12 07:52:23;;;;;;;4.00;3.40;;;9.80;99.90;;;;;;5018735;28;20484;-68
2024/03/12 07:54:49;;;;;;;5.30;3.70;;;9.80;99.90;;;;;;5011328;28;20812;-68
2024/03/12 07:57:16;;;;;;;3.60;2.87;;;10.00;99.90;;;;;;5014064;28;20186;-68
2024/03/12 07:59:43;;;;;;;5.83;3.33;;;10.00;99.90;;;;;;5015109;28;20716;-68
2024/03/12 08:02:11;;;;;;;4.50;3.53;;;10.00;99.90;;;;;;5010320;28;20434;-68
2024/03/12 08:04:42;;;;;;;5.13;3.70;;;10.10;99.90;;;;;;5019579;28;21003;-68
2024/03/12 08:07:10;;;;;;;4.50;3.20;;;10.20;99.90;;;;;;5010926;28;21198;-68
2024/03/12 08:09:36;;;;;;;4.10;3.10;;;10.30;99.90;;;;;;5016724;28;20523;-68
2024/03/12 08:12:02;;;;;;;6.00;3.87;;;10.30;99.90;;;;;;5013568;28;20536;-68
2024/03/12 08:14:28;;;;;;;4.30;3.20;;;10.30;99.90;;;;;;5013352;28;20451;-68
2024/03/12 08:16:54;;;;;;;5.87;3.70;;;10.20;99.90;;;;;;5013825;28;20224;-68
2024/03/12 08:19:25;;;;;;;6.93;3.53;;;10.10;99.90;;;;;;5008610;28;20909;-68
2024/03/12 08:21:51;;;;;;;5.80;3.40;;;10.10;99.90;;;;;;5010566;28;20212;-68
2024/03/12 08:24:17;;;;;;;4.60;3.27;;;10.10;99.90;;;;;;5018039;28;20461;-68
2024/03/12 08:26:43;;;;;;;5.00;3.70;;;10.20;99.90;;;;;;5010764;28;20479;-68
2024/03/12 08:29:09;;;;;;;4.63;3.60;;;10.20;99.90;;;;;;5011589;28;20202;-67
2024/03/12 08:31:38;;;;;;;5.60;3.77;;;10.30;99.90;;;;;;5012123;28;20215;-68
2024/03/12 08:34:04;;;;;;;5.50;4.20;;;10.30;99.90;;;;;;5012507;28;20200;-67
2024/03/12 08:36:30;;;;;;;5.50;4.50;;;10.20;99.90;;;;;;5013199;28;20427;-67
2024/03/12 08:38:58;;;;;;;7.10;4.17;;;10.20;99.90;;;;;;5011836;28;20420;-68
2024/03/12 08:41:25;;;;;;;6.17;5.20;;;10.30;99.90;;;;;;5014024;28;20184;-68
2024/03/12 08:43:50;;;;;;;5.70;4.53;;;10.30;99.90;;;;;;5012743;28;20514;-68
2024/03/12 08:46:16;;;;;;;7.93;4.47;;;10.40;99.90;;;;;;5010481;28;20957;-68
2024/03/12 08:48:42;;;;;;;5.70;4.80;;;10.50;99.90;;;;;;5014750;28;20606;-68
2024/03/12 08:51:08;;;;;;;8.80;5.20;;;10.50;99.90;;;;;;5011522;28;20215;-68
2024/03/12 08:53:34;;;;;;;7.50;5.20;;;10.60;99.90;;;;;;5012622;28;20423;-68
2024/03/12 08:56:00;;;;;;;6.10;5.10;;;10.70;99.90;;;;;;5011079;28;20194;-68
2024/03/12 08:58:26;;;;;;;9.33;5.50;;;10.70;99.90;;;;;;5008895;28;20428;-68
2024/03/12 09:00:53;;;;;;;6.30;4.90;;;10.80;99.90;;;;;;5010294;28;20431;-68
2024/03/12 09:03:19;;;;;;;6.80;5.27;;;10.90;99.90;;;;;;5010455;28;20420;-69
2024/03/12 09:05:45;;;;;;;5.93;4.17;;;11.10;99.90;;;;;;5013141;28;20447;-68
2024/03/12 09:08:11;;;;;;;8.63;5.70;;;11.10;99.90;;;;;;5012467;28;20437;-68
2024/03/12 09:10:37;;;;;;;9.43;6.03;;;11.00;99.90;;;;;;5013247;28;20315;-68
2024/03/12 09:13:03;;;;;;;7.40;5.37;;;11.10;99.90;;;;;;5017198;28;20435;-68
2024/03/12 09:15:31;;;;;;;10.70;5.87;;;11.20;99.90;;;;;;5014979;28;20459;-68
2024/03/12 09:17:57;;;;;;;9.77;6.10;;;11.20;99.90;;;;;;5012846;28;21148;-68
2024/03/12 09:20:23;;;;;;;7.80;5.87;;;11.20;99.90;;;;;;5011171;28;20506;-68
2024/03/12 09:22:49;;;;;;;9.40;6.40;;;11.10;99.90;;;;;;5013670;28;20489;-68
2024/03/12 09:25:17;;;;;;;7.03;5.70;;;11.00;99.90;;;;;;5013641;28;20258;-68
2024/03/12 09:27:45;;;;;;;9.67;6.30;;;11.10;99.90;;;;;;5017111;28;20465;-68
2024/03/12 09:30:12;;;;;;;9.93;6.30;;;11.20;99.90;;;;;;5012728;28;20423;-68
2024/03/12 09:32:39;;;;;;;11.00;5.93;;;11.10;99.90;;;;;;5016475;28;20428;-68
2024/03/12 09:35:06;;;;;;;9.80;6.47;;;11.10;99.90;;;;;;5008467;28;20453;-67
2024/03/12 09:37:35;;;;;;;9.13;6.10;;;11.10;99.90;;;;;;5012770;28;20939;-67
2024/03/12 09:40:07;;;;;;;10.43;6.40;;;11.10;99.90;;;;;;5011954;28;20431;-68
2024/03/12 09:42:37;;;;;;;8.23;6.00;;;10.90;99.90;;;;;;5015473;28;20411;-67
2024/03/12 09:45:06;;;;;;;7.27;6.00;;;10.80;99.90;;;;;;5011528;28;20459;-68
2024/03/12 09:47:32;;;;;;;10.50;6.87;;;10.80;99.90;;;;;;5009362;28;20454;-67
2024/03/12 09:49:59;;;;;;;9.87;7.63;;;10.90;99.90;;;;;;5010049;28;20427;-68
2024/03/12 09:52:25;;;;;;;7.77;6.73;;;10.80;99.90;;;;;;5010025;28;20873;-67
2024/03/12 09:54:51;;;;;;;9.13;6.37;;;10.80;99.90;;;;;;5016564;28;20467;-68
2024/03/12 09:57:17;;;;;;;11.37;7.57;;;10.80;99.90;;;;;;5008683;28;20503;-67
2024/03/12 09:59:43;;;;;;;10.13;7.23;;;10.70;99.90;;;;;;5012210;28;20184;-67
2024/03/12 10:02:09;;;;;;;11.17;7.90;;;10.70;99.90;;;;;;5008266;28;20496;-67
2024/03/12 10:04:35;;;;;;;12.03;8.43;;;10.80;99.90;;;;;;5013724;28;20217;-67
2024/03/12 10:07:01;;;;;;;10.70;6.87;;;10.70;99.90;;;;;;5012450;28;20429;-67
2024/03/12 10:09:29;;;;;;;10.93;8.63;;;10.80;99.90;;;;;;5014139;28;20185;-67
2024/03/12 10:11:55;;;;;;;13.87;8.00;;;10.70;99.90;;;;;;5009958;28;20239;-68
2024/03/12 10:14:22;;;;;;;10.80;7.90;;;10.60;99.90;;;;;;5015112;28;20470;-68
2024/03/12 10:16:49;;;;;;;11.10;7.30;;;10.50;99.90;;;;;;5014164;28;20436;-68
2024/03/12 10:19:15;;;;;;;11.27;7.50;;;10.50;99.90;;;;;;5013722;28;20902;-68
2024/03/12 10:21:41;;;;;;;9.50;7.07;;;10.50;99.90;;;;;;5021364;28;20440;-68
2024/03/12 10:24:13;;;;;;;9.57;6.57;;;10.60;99.90;;;;;;5013753;28;20449;-68
2024/03/12 10:26:44;;;;;;;9.93;6.87;;;10.70;99.90;;;;;;5013488;28;20450;-69
2024/03/12 10:29:13;;;;;;;11.33;8.37;;;10.70;99.90;;;;;;5014214;28;20431;-67
2024/03/12 10:31:40;;;;;;;10.13;7.33;;;10.70;99.90;;;;;;5013840;28;20467;-67
2024/03/12 10:34:12;;;;;;;13.20;8.50;;;10.70;99.90;;;;;;5010829;28;20506;-67
2024/03/12 10:36:42;;;;;;;11.67;7.70;;;10.70;99.90;;;;;;5019335;28;20481;-68
2024/03/12 10:39:12;;;;;;;12.90;8.97;;;10.60;99.90;;;;;;5016077;28;20424;-68
2024/03/12 10:41:43;;;;;;;11.33;8.00;;;10.60;99.90;;;;;;5014794;28;20450;-67
2024/03/12 10:44:13;;;;;;;12.40;8.40;;;10.60;99.90;;;;;;5014125;28;20471;-68
2024/03/12 10:46:44;;;;;;;11.30;7.90;;;10.60;99.90;;;;;;5015942;28;20424;-67
2024/03/12 10:49:12;;;;;;;15.30;8.53;;;10.50;99.90;;;;;;5012763;28;20444;-68
2024/03/12 10:51:42;;;;;;;14.70;9.73;;;10.60;99.90;;;;;;5015324;28;20472;-68
2024/03/12 10:54:13;;;;;;;12.00;9.00;;;10.60;99.90;;;;;;5020656;28;20795;-68
2024/03/12 10:56:45;;;;;;;12.13;8.90;;;10.60;99.90;;;;;;5020636;28;20522;-68
2024/03/12 10:59:12;;;;;;;15.10;10.13;;;10.70;99.90;;;;;;5016207;28;20482;-67
2024/03/12 11:01:41;;;;;;;13.37;9.90;;;10.70;99.90;;;;;;5013374;28;20431;-68
2024/03/12 11:04:12;;;;;;;15.20;10.70;;;10.70;99.90;;;;;;5014514;28;20442;-67
2024/03/12 11:06:39;;;;;;;16.40;10.47;;;10.60;99.90;;;;;;5021623;28;20457;-68
2024/03/12 11:09:07;;;;;;;13.20;9.23;;;10.70;99.90;;;;;;5011469;28;20422;-68
2024/03/12 11:11:33;;;;;;;16.90;11.43;;;10.70;99.90;;;;;;5016228;28;20996;-68
2024/03/12 11:14:02;;;;;;;15.37;9.87;;;10.70;99.90;;;;;;5012374;28;20574;-68
2024/03/12 11:16:34;;;;;;;16.27;11.20;;;10.70;99.90;;;;;;5015104;28;20454;-69
2024/03/12 11:19:20;;;;;;;16.10;11.33;;;10.80;99.90;;;;;;5011861;28;20419;-67
2024/03/12 11:21:49;;;;;;;15.10;10.93;;;10.90;99.90;;;;;;5015335;28;20933;-68
2024/03/12 11:24:24;;;;;;;18.00;11.77;;;10.90;99.90;;;;;;5010939;28;20438;-68
2024/03/12 11:26:54;;;;;;;15.63;12.20;;;10.80;99.90;;;;;;5011215;28;20435;-68
2024/03/12 11:29:58;;;;;;;21.93;12.60;;;10.90;99.90;;;;;;5011129;28;20477;-69
2024/03/12 11:32:26;;;;;;;19.10;12.20;;;10.80;99.90;;;;;;5012732;28;20478;-69
2024/03/12 11:34:53;;;;;;;23.13;13.70;;;10.80;99.90;;;;;;5016480;28;20471;-69
2024/03/12 11:37:19;;;;;;;21.30;14.13;;;10.90;99.90;;;;;;5025004;28;20449;-69
2024/03/12 11:39:45;;;;;;;23.23;15.43;;;11.00;99.90;;;;;;5019379;28;20909;-68
2024/03/12 11:42:11;;;;;;;24.30;13.60;;;10.90;99.90;;;;;;5021496;28;20192;-68
2024/03/12 11:44:49;;;;;;;19.27;14.60;;;10.90;99.90;;;;;;5018648;28;20204;-68
2024/03/12 11:47:34;;;;;;;21.83;14.73;;;11.00;99.90;;;;;;5012297;28;20802;-68
2024/03/12 11:50:01;;;;;;;21.37;15.23;;;11.00;99.90;;;;;;5011137;28;20427;-67
2024/03/12 11:52:30;;;;;;;18.70;13.70;;;10.90;99.90;;;;;;5011477;28;20467;-67
2024/03/12 11:54:56;;;;;;;24.17;14.90;;;11.00;99.90;;;;;;5014392;28;20435;-68
2024/03/12 11:57:25;;;;;;;29.47;17.73;;;11.00;99.90;;;;;;5013716;28;20822;-67
2024/03/12 11:59:51;;;;;;;25.97;17.10;;;10.90;99.90;;;;;;5017323;28;20181;-67
2024/03/12 12:02:20;;;;;;;23.80;15.77;;;11.00;99.90;;;;;;5010639;28;20416;-68
2024/03/12 12:04:57;;;;;;;26.13;16.40;;;11.10;99.90;;;;;;5012311;28;20996;-68
2024/03/12 12:07:25;;;;;;;31.00;18.00;;;11.10;99.90;;;;;;5015680;28;20439;-68
2024/03/12 12:09:52;;;;;;;26.23;17.67;;;11.20;99.90;;;;;;5016966;28;20795;-68
2024/03/12 12:12:18;;;;;;;29.43;18.90;;;11.20;99.90;;;;;;5012982;28;20462;-68
2024/03/12 12:14:47;;;;;;;25.73;17.10;;;11.30;99.90;;;;;;5012452;28;20486;-68
2024/03/12 12:17:19;;;;;;;26.47;18.20;;;11.40;99.90;;;;;;5009064;28;20513;-68
2024/03/12 12:19:45;;;;;;;29.17;18.83;;;11.70;99.90;;;;;;5026025;28;20463;-68
2024/03/12 12:22:11;;;;;;;27.47;17.80;;;11.80;99.90;;;;;;5015949;28;20426;-67
2024/03/12 12:24:40;;;;;;;30.23;18.50;;;12.00;99.90;;;;;;5014383;28;21129;-68
2024/03/12 12:27:06;;;;;;;30.90;21.03;;;12.00;99.90;;;;;;5010866;28;20191;-67
2024/03/12 12:29:33;;;;;;;31.90;18.97;;;12.00;99.90;;;;;;5014236;28;20427;-67
2024/03/12 12:31:59;;;;;;;33.60;19.87;;;11.80;99.90;;;;;;5008779;28;20940;-67
2024/03/12 12:34:28;;;;;;;29.10;19.33;;;11.80;99.90;;;;;;5010249;28;20463;-68
2024/03/12 12:36:54;;;;;;;30.30;20.10;;;11.90;99.90;;;;;;5009300;28;20526;-68
2024/03/12 12:39:21;;;;;;;30.30;18.80;;;11.80;99.90;;;;;;5010207;28;20420;-68
2024/03/12 12:41:48;;;;;;;30.67;21.60;;;11.80;99.90;;;;;;5017654;28;20520;-69
2024/03/12 12:44:20;;;;;;;31.13;19.33;;;11.80;99.90;;;;;;5012198;28;20466;-69
2024/03/12 12:46:48;;;;;;;33.77;19.87;;;11.80;99.90;;;;;;5015195;28;20430;-67
2024/03/12 12:49:16;;;;;;;28.90;19.37;;;11.70;99.90;;;;;;5005905;28;20525;-67
2024/03/12 12:51:47;;;;;;;33.67;20.47;;;11.70;99.90;;;;;;5013664;28;20462;-67
2024/03/12 12:54:14;;;;;;;27.20;18.60;;;11.70;99.90;;;;;;5005271;28;20654;-68